INFORMACIÓN METAR y TAF
METAR FOR LEGR
ADDS - METARS form results

(1607 UTC 14 December 2019)
Data provider http://aviationweather.gov/metar/data/
 
METAR text: LEGR 141600Z 26003KT 220V290 9999 FEW030 14/08 Q1020
Conditions at: LEGR (GRANADA AIRPORT , ES) observed 1600 UTC 14 December 2019
Temperature: 14.0°C (57°F)
Dewpoint: 8.0°C (46°F) [RH = 67%]
Pressure (altimeter): 30.12 inches Hg (1020.0 mb)
Winds: from the W (260 degrees) at 3 MPH (3 knots; 1.5 m/s)
Visibility: 6 or more miles (10+ km)
Ceiling: at least 12,000 feet AGL
Clouds: few clouds at 3000 feet AGL
Weather: no significant weather observed at this time

METAR text: LEGR 141530Z VRB02KT 9999 FEW030 14/08 Q1020
Conditions at: LEGR (GRANADA AIRPORT , ES) observed 1530 UTC 14 December 2019
Temperature: 14.0°C (57°F)
Dewpoint: 8.0°C (46°F) [RH = 67%]
Pressure (altimeter): 30.12 inches Hg (1020.0 mb)
Winds: variable direction winds at 2 MPH (2 knots; 1.0 m/s)
Visibility: 6 or more miles (10+ km)
Ceiling: at least 12,000 feet AGL
Clouds: few clouds at 3000 feet AGL
Weather: no significant weather observed at this time

Forecast for: LEGR (GRANADA AIRPORT , ES)
Text: TAF LEGR 141400Z 1415/1515 VRB02KT 9999 FEW025 TX15/1515Z TN04/1507Z
Forecast period: 1500 UTC 14 December 2019 to 1500 UTC 15 December 2019
Forecast type: FROM: standard forecast or significant change
Winds: variable direction winds at 2 MPH (2 knots; 1.0 m/s)
Visibility: 6 or more miles 10+ km)
Ceiling: at least 12,000 feet AGL
Clouds: few clouds at 2500 feet AGL
Weather: no significant weather forecast for this period
Text: PROB30
Forecast period: 0300 to 0900 UTC 15 December 2019
Forecast type: TEMPORARY: The following changes expected for less than half the time period
Visibility: 2.49 miles (4.01 km)
Ceiling: unknown
Clouds: missing
Weather: BR  (mist)

 MAPA DE AEROPUERTO

 INFORMACIÓN DE PISTA
Pista 09 Longitud 9514 ft Ancho 148 ft
Elevación 1842 ft Umbral desplazado 0 ft Rumbo de pista 90
Pista 27 Longitud 9514 ft Ancho 148 ft
Elevación 1860 ft Umbral desplazado 0 ft Rumbo de pista 270

 FRECUANCIAS DEL AEROPUERTO
Tipo GND Nombre GND Frecuencia 121.7 MHZ
Tipo TWR Nombre TWR Frecuencia 118.85 MHZ

 RADIO AYUDAS DEL AEROPUERTO
Tipo VOR-DME Nombre Granada Frecuencia 113400 KHZ



Powered by Virtual Airlines Manager [v2.6.2]